Time;durP1;ratioP1;P1;durP2;ratioP2;P2;SDS_P1;SDS_P2;PMS_P1;PMS_P2;Temp;Humidity;BMP_temperature;BMP_pressure;BME280_temperature;BME280_humidity;BME280_pressure;Samples;Min_cycle;Max_cycle;Signal;HPM_P1;HPM_P2
2022/06/07 00:01:06;;;;;;;12.47;5.97;;;;;;;16.10;65.96;100570.53;124447;1099;104165;-78
2022/06/07 00:03:37;;;;;;;13.90;6.90;;;;;;;16.07;66.73;100566.06;124701;1102;104265;-79
2022/06/07 00:06:09;;;;;;;11.20;6.50;;;;;;;16.04;65.68;100567.79;124370;1102;102807;-79
2022/06/07 00:08:40;;;;;;;13.60;6.50;;;;;;;16.00;66.63;100558.89;124550;1102;104162;-78
2022/06/07 00:11:12;;;;;;;14.50;6.90;;;;;;;15.97;66.67;100566.79;124460;1102;104166;-79
2022/06/07 00:13:44;;;;;;;12.03;6.47;;;;;;;15.94;66.54;100564.09;124648;1101;102867;-78
2022/06/07 00:16:17;;;;;;;11.93;6.97;;;;;;;15.90;67.33;100568.47;124430;1102;104166;-78
2022/06/07 00:18:49;;;;;;;12.73;6.93;;;;;;;15.88;67.29;100570.20;124582;1102;104986;-79
2022/06/07 00:21:22;;;;;;;12.50;6.60;;;;;;;15.84;67.59;100563.08;124619;1102;103748;-78
2022/06/07 00:23:53;;;;;;;14.03;7.00;;;;;;;15.79;67.50;100565.66;124473;1102;104246;-79
2022/06/07 00:26:26;;;;;;;13.25;6.40;;;;;;;15.73;68.40;100570.81;124510;1101;103242;-78
2022/06/07 00:28:58;;;;;;;13.10;6.77;;;;;;;15.69;67.33;100573.39;124395;1102;104341;-78
2022/06/07 00:31:31;;;;;;;10.05;6.08;;;;;;;15.65;67.02;100575.10;124498;1102;102146;-79
2022/06/07 00:34:04;;;;;;;14.55;6.90;;;;;;;15.61;68.21;100573.27;124459;1099;104370;-78
2022/06/07 00:36:37;;;;;;;12.45;6.15;;;;;;;15.58;67.85;100570.56;124415;1102;104050;-78
2022/06/07 00:39:09;;;;;;;11.83;6.37;;;;;;;15.57;67.79;100576.74;124459;1102;104183;-78
2022/06/07 00:41:41;;;;;;;11.73;5.97;;;;;;;15.53;68.58;100573.13;124461;1102;102666;-78
2022/06/07 00:44:31;;;;;;;13.60;6.47;;;;;;;15.54;68.68;100568.76;124304;1102;101812;-78
2022/06/07 00:47:10;;;;;;;11.77;6.00;;;;;;;15.52;68.45;100573.11;124322;1100;118845;-78
2022/06/07 00:49:47;;;;;;;11.77;5.77;;;;;;;15.51;67.85;100574.88;124318;1102;104163;-78
2022/06/07 00:52:20;;;;;;;10.37;6.30;;;;;;;15.52;67.66;100571.38;124360;1102;104207;-78
2022/06/07 00:54:51;;;;;;;;;;;;;;;15.49;69.63;100570.41;124416;1102;104195;-79
2022/06/07 00:57:29;;;;;;;12.97;6.00;;;;;;;15.46;68.22;100569.51;124364;1102;104268;-78
2022/06/07 01:00:03;;;;;;;12.43;6.53;;;;;;;15.44;68.84;100578.27;124412;1102;104278;-78
2022/06/07 01:02:36;;;;;;;11.37;6.27;;;;;;;15.41;69.05;100570.28;124450;1102;102734;-79
2022/06/07 01:05:09;;;;;;;12.40;6.20;;;;;;;15.39;68.64;100570.25;124587;1102;102912;-78
2022/06/07 01:10:48;;;;;;;11.77;6.10;;;;;;;15.34;68.46;100560.48;124542;1102;104340;-78
2022/06/07 01:13:28;;;;;;;10.43;6.40;;;;;;;15.30;68.99;100562.16;124630;1102;104278;-78
2022/06/07 01:16:04;;;;;;;11.87;6.63;;;;;;;15.30;68.17;100564.80;124662;1102;103363;-79
2022/06/07 01:18:39;;;;;;;11.17;6.17;;;;;;;15.28;67.89;100567.42;124538;1102;104169;-79
2022/06/07 01:21:32;;;;;;;14.17;6.53;;;;;;;15.27;68.29;100570.07;124364;1102;102209;-78
2022/06/07 01:24:08;;;;;;;11.37;6.30;;;;;;;15.23;68.70;100566.46;124529;1102;104182;-79
2022/06/07 01:26:48;;;;;;;12.30;5.90;;;;;;;15.22;68.56;100572.63;124596;1102;104163;-79
2022/06/07 01:29:18;;;;;;;;;;;;;;;15.19;68.97;100567.29;124430;1101;102200;-78
2022/06/07 01:31:51;;;;;;;11.00;6.50;;;;;;;15.17;68.80;100563.70;124369;1102;104217;-78
2022/06/07 01:34:26;;;;;;;11.37;6.37;;;;;;;15.15;69.41;100554.88;124397;1102;104172;-79
2022/06/07 01:37:01;;;;;;;13.57;6.40;;;;;;;15.14;69.53;100553.08;124526;1102;104188;-79
2022/06/07 01:42:24;;;;;;;11.20;6.20;;;;;;;15.09;69.64;100555.64;124589;1099;104238;-79
2022/06/07 01:44:56;;;;;;;11.17;6.53;;;;;;;15.10;68.92;100565.36;124745;1102;101933;-78
2022/06/07 01:47:32;;;;;;;11.20;6.47;;;;;;;15.10;69.00;100559.20;124457;1102;104156;-78
2022/06/07 01:50:08;;;;;;;12.53;6.07;;;;;;;15.07;69.18;100554.73;124515;1102;104733;-79
2022/06/07 01:52:39;;;;;;;12.73;6.30;;;;;;;15.03;69.08;100560.81;124409;1102;104172;-78
2022/06/07 01:55:17;;;;;;;10.63;5.73;;;;;;;15.01;69.52;100556.38;124417;1102;104242;-78
2022/06/07 01:57:55;;;;;;;11.97;6.07;;;;;;;14.95;68.82;100562.43;124322;1102;104156;-78
2022/06/07 02:00:27;;;;;;;11.40;6.67;;;;;;;14.92;68.88;100562.37;124272;1102;104153;-78
2022/06/07 02:02:59;;;;;;;11.07;6.17;;;;;;;14.92;69.08;100559.73;124518;1102;104677;-78
2022/06/07 02:05:30;;;;;;;10.00;5.80;;;;;;;14.91;69.35;100566.78;124608;1102;102998;-78
2022/06/07 02:08:03;;;;;;;11.93;6.33;;;;;;;14.91;69.53;100565.86;124570;1099;104235;-78
2022/06/07 02:10:38;;;;;;;13.13;6.50;;;;;;;14.88;69.55;100558.80;124325;1102;104157;-78
2022/06/07 02:13:19;;;;;;;12.83;6.00;;;;;;;14.86;69.90;100559.61;124495;1102;101848;-78
2022/06/07 02:15:52;;;;;;;10.47;6.23;;;;;;;14.84;70.20;100559.58;124466;1102;104207;-78
2022/06/07 02:18:25;;;;;;;17.20;6.80;;;;;;;14.82;69.89;100550.75;124444;1102;104274;-78
2022/06/07 02:21:08;;;;;;;13.37;6.83;;;;;;;14.82;69.14;100560.41;124454;1100;104165;-78
2022/06/07 02:23:40;;;;;;;14.73;6.40;;;;;;;14.83;69.71;100567.48;124423;1102;102370;-78
2022/06/07 02:26:17;;;;;;;10.00;5.90;;;;;;;14.81;69.32;100563.92;124505;1099;104211;-79
2022/06/07 02:28:53;;;;;;;10.20;6.17;;;;;;;14.77;70.08;100567.36;124556;1102;102768;-78
2022/06/07 02:31:27;;;;;;;11.07;6.40;;;;;;;14.74;69.73;100566.45;124495;1102;102964;-79
2022/06/07 02:34:01;;;;;;;10.53;6.13;;;;;;;14.70;70.43;100561.95;124469;1102;104287;-78
2022/06/07 02:36:34;;;;;;;11.23;6.37;;;;;;;14.69;69.72;100559.28;124587;1102;102755;-78
2022/06/07 02:39:06;;;;;;;11.20;6.10;;;;;;;14.65;70.14;100558.34;124520;1102;104425;-78
2022/06/07 02:41:38;;;;;;;10.53;6.10;;;;;;;14.61;70.36;100561.77;124458;1102;104198;-78
2022/06/07 02:44:12;;;;;;;12.63;6.47;;;;;;;14.60;70.40;100560.01;124569;1102;103008;-78
2022/06/07 02:46:44;;;;;;;11.40;6.07;;;;;;;14.61;71.14;100564.41;124664;1101;104175;-78
2022/06/07 02:49:18;;;;;;;11.63;6.40;;;;;;;14.61;70.09;100564.41;124438;1100;104252;-79
2022/06/07 02:51:50;;;;;;;13.57;6.40;;;;;;;14.63;70.24;100567.08;124418;1102;104229;-78
2022/06/07 02:54:23;;;;;;;12.43;6.67;;;;;;;14.63;71.04;100570.63;124413;1102;102474;-78
2022/06/07 02:56:57;;;;;;;9.60;5.73;;;;;;;14.64;70.08;100567.11;124395;1102;102939;-78
2022/06/07 02:59:30;;;;;;;11.70;6.80;;;;;;;14.67;69.75;100572.45;124341;1100;104820;-79
2022/06/07 03:02:05;;;;;;;13.33;6.60;;;;;;;14.68;69.89;100562.80;124448;1102;102365;-79
2022/06/07 03:04:37;;;;;;;13.00;6.90;;;;;;;14.67;70.78;100567.17;124477;1102;104297;-78
2022/06/07 03:07:10;;;;;;;14.20;6.43;;;;;;;14.68;70.15;100568.97;124478;1102;104304;-79
2022/06/07 03:09:43;;;;;;;13.95;5.85;;;;;;;14.68;70.39;100571.61;124614;1102;102305;-79
2022/06/07 03:12:18;;;;;;;13.60;5.83;;;;;;;14.71;70.62;100573.43;124309;1102;102338;-78
2022/06/07 03:14:52;;;;;;;10.17;6.00;;;;;;;14.73;71.09;100567.30;124278;1102;104169;-78
2022/06/07 03:17:24;;;;;;;11.13;6.13;;;;;;;14.76;70.38;100568.20;124493;1102;102768;-78
2022/06/07 03:19:56;;;;;;;13.77;6.10;;;;;;;14.79;70.64;100573.55;124354;1102;104157;-78
2022/06/07 03:22:29;;;;;;;12.77;6.27;;;;;;;14.80;70.80;100570.94;124914;1102;104169;-79
2022/06/07 03:25:05;;;;;;;11.33;6.00;;;;;;;14.82;71.25;100578.89;124463;1099;104242;-78
2022/06/07 03:27:39;;;;;;;12.80;5.90;;;;;;;14.82;71.06;100569.24;124607;1099;102348;-79
2022/06/07 03:30:16;;;;;;;13.95;6.30;;;;;;;14.84;70.87;100572.79;124381;1102;104255;-79
2022/06/07 03:32:49;;;;;;;9.53;5.73;;;;;;;14.87;70.36;100571.97;124350;1102;104238;-79
2022/06/07 03:35:23;;;;;;;12.27;6.10;;;;;;;14.92;70.57;100572.94;124467;1102;104217;-78
2022/06/07 03:37:55;;;;;;;16.13;6.50;;;;;;;14.95;70.39;100567.72;124448;1102;102784;-78
2022/06/07 03:40:44;;;;;;;11.38;6.20;;;;;;;15.01;70.88;100573.12;124377;1102;103253;-78
2022/06/07 03:43:18;;;;;;;12.97;6.00;;;;;;;15.07;70.27;100567.06;124315;1102;104280;-78
2022/06/07 03:45:50;;;;;;;15.70;6.30;;;;;;;15.13;71.21;100567.18;124392;1102;101918;-78
2022/06/07 03:48:22;;;;;;;13.20;6.30;;;;;;;15.20;70.72;100578.74;124506;1102;104163;-78
2022/06/07 03:50:55;;;;;;;10.97;5.97;;;;;;;15.24;70.95;100578.83;124318;1102;109094;-78
2022/06/07 03:53:27;;;;;;;12.67;6.20;;;;;;;15.28;70.99;100577.12;124252;1102;104232;-77
2022/06/07 03:56:00;;;;;;;12.37;6.10;;;;;;;15.30;70.25;100580.67;124296;1102;104284;-78
2022/06/07 03:58:37;;;;;;;10.87;5.57;;;;;;;15.36;70.11;100583.42;124291;1101;104274;-78
2022/06/07 04:01:13;;;;;;;11.03;6.10;;;;;;;15.43;70.14;100574.74;124447;1099;117789;-78
2022/06/07 04:03:46;;;;;;;12.87;5.90;;;;;;;15.50;70.83;100577.49;124295;1102;104362;-78
2022/06/07 04:06:24;;;;;;;12.33;5.72;;;;;;;15.55;70.66;100582.00;124623;1102;104163;-78
2022/06/07 04:08:57;;;;;;;12.60;6.37;;;;;;;15.62;70.78;100580.34;124472;1099;104143;-78
2022/06/07 04:11:30;;;;;;;11.93;5.75;;;;;;;15.67;69.76;100576.01;124469;1101;104178;-78
2022/06/07 04:14:06;;;;;;;14.87;5.50;;;;;;;15.73;69.85;100576.11;124301;1102;104285;-78
2022/06/07 04:16:37;;;;;;;11.17;5.40;;;;;;;15.80;69.73;100566.56;124331;1102;102852;-77
2022/06/07 04:19:16;;;;;;;11.50;5.63;;;;;;;15.86;70.23;100568.39;124390;1102;104223;-78
2022/06/07 04:21:48;;;;;;;12.73;5.90;;;;;;;15.91;69.53;100564.97;124419;1103;102701;-78
2022/06/07 04:24:39;;;;;;;12.17;5.50;;;;;;;15.99;69.73;100576.55;124285;1102;104163;-78
2022/06/07 04:27:14;;;;;;;14.07;6.47;;;;;;;16.03;69.18;100564.23;124674;1105;102789;-79
2022/06/07 04:29:49;;;;;;;9.33;5.30;;;;;;;16.10;69.75;100574.05;124611;1102;101934;-79
2022/06/07 04:32:24;;;;;;;10.75;5.70;;;;;;;16.14;68.71;100565.30;124397;1102;102563;-78
2022/06/07 04:35:15;;;;;;;14.27;5.30;;;;;;;16.20;68.91;100566.24;124481;1102;104469;-78
2022/06/07 04:37:50;;;;;;;12.23;5.60;;;;;;;16.29;68.98;100561.08;124383;1102;104634;-78
2022/06/07 04:40:24;;;;;;;11.63;5.60;;;;;;;16.37;68.39;100571.77;124284;1102;103514;-77
2022/06/07 04:42:57;;;;;;;10.98;5.40;;;;;;;16.44;68.33;100570.95;124263;1102;104355;-78
2022/06/07 04:45:34;;;;;;;14.00;5.50;;;;;;;16.51;68.16;100573.70;124297;1102;104227;-77
2022/06/07 04:48:18;;;;;;;8.30;5.23;;;;;;;16.57;68.32;100572.91;124202;1102;104568;-78
2022/06/07 04:54:37;;;;;;;11.67;5.60;;;;;;;16.79;67.98;100574.04;124424;1104;104478;-78
2022/06/07 04:57:13;;;;;;;11.97;5.10;;;;;;;16.88;68.11;100570.66;124474;1102;102939;-78
2022/06/07 04:59:49;;;;;;;9.23;5.00;;;;;;;17.01;67.82;100569.02;124222;1102;104296;-78
2022/06/07 05:02:23;;;;;;;15.47;5.90;;;;;;;17.12;67.95;100574.42;124301;1102;109421;-79
2022/06/07 05:04:57;;;;;;;15.33;5.57;;;;;;;17.23;67.53;100576.33;124239;1102;102890;-79
2022/06/07 05:07:35;;;;;;;10.37;4.73;;;;;;;17.35;67.62;100575.53;124402;1102;104182;-79
2022/06/07 05:10:16;;;;;;;13.13;5.10;;;;;;;17.47;67.36;100580.07;124771;1102;103692;-79
2022/06/07 05:12:52;;;;;;;15.17;5.30;;;;;;;17.56;66.86;100574.84;124509;1102;104217;-79
2022/06/07 05:15:27;;;;;;;9.90;4.90;;;;;;;17.67;66.55;100574.93;124176;1105;104214;-78
2022/06/07 05:18:07;;;;;;;12.63;5.30;;;;;;;17.78;66.54;100569.70;124656;1105;104251;-78
2022/06/07 05:20:55;;;;;;;16.43;5.03;;;;;;;17.87;66.52;100580.39;124389;1105;104169;-79
2022/06/07 05:23:31;;;;;;;13.27;4.87;;;;;;;17.99;65.77;100578.72;124670;1105;104396;-79
2022/06/07 05:26:11;;;;;;;9.93;4.90;;;;;;;18.07;65.49;100576.99;124412;1105;104329;-79
2022/06/07 05:28:52;;;;;;;11.80;4.43;;;;;;;18.14;64.90;100582.35;124472;1102;102041;-79
2022/06/07 05:31:25;;;;;;;9.70;4.43;;;;;;;18.22;64.59;100585.05;124512;1102;104289;-79
2022/06/07 05:33:58;;;;;;;11.48;4.80;;;;;;;18.31;63.94;100582.45;124620;1102;102769;-79
2022/06/07 05:36:33;;;;;;;16.90;5.00;;;;;;;18.41;63.83;100583.38;124483;1102;102656;-78
2022/06/07 05:39:16;;;;;;;9.20;4.47;;;;;;;18.51;64.21;100586.95;124391;1102;104331;-81
2022/06/07 05:41:51;;;;;;;11.60;4.13;;;;;;;18.61;63.24;100582.59;124294;1102;103049;-80
2022/06/07 05:44:28;;;;;;;16.43;5.10;;;;;;;18.69;63.26;100587.03;125050;1105;102454;-80
2022/06/07 05:47:03;;;;;;;13.80;5.07;;;;;;;18.77;63.45;100588.84;125302;1102;102948;-79
2022/06/07 05:49:43;;;;;;;;;;;;;;;18.88;62.21;100595.11;124554;1102;104261;-79
2022/06/07 05:52:21;;;;;;;16.75;6.05;;;;;;;18.98;62.97;100590.70;124716;1102;104188;-80
2022/06/07 05:54:57;;;;;;;18.17;6.57;;;;;;;19.08;62.73;100591.63;124728;1102;102590;-79
2022/06/07 05:57:50;;;;;;;15.67;6.23;;;;;;;19.17;62.07;100594.31;124842;1102;104198;-80
2022/06/07 06:00:46;;;;;;;18.00;5.30;;;;;;;19.26;62.11;100596.08;124914;1099;104173;-81
2022/06/07 06:03:22;;;;;;;15.30;5.30;;;;;;;19.38;62.82;100586.37;124842;1099;103437;-79
2022/06/07 06:06:01;;;;;;;13.77;5.20;;;;;;;19.48;62.28;100581.93;124618;1102;102992;-78
2022/06/07 06:11:33;;;;;;;16.03;5.97;;;;;;;19.71;62.03;100583.69;124635;1102;103176;-78
2022/06/07 06:14:31;;;;;;;13.60;5.20;;;;;;;19.84;61.33;100573.97;124549;1103;104201;-78
2022/06/07 06:17:10;;;;;;;12.33;4.90;;;;;;;19.96;61.11;100579.28;124456;1106;102478;-77
2022/06/07 06:19:48;;;;;;;14.43;4.63;;;;;;;20.07;61.00;100565.91;124554;1105;104169;-78
2022/06/07 06:22:22;;;;;;;10.50;5.03;;;;;;;20.18;60.68;100564.12;124481;1105;104245;-80
2022/06/07 06:25:16;;;;;;;16.13;4.73;;;;;;;20.30;60.00;100563.19;124153;1105;104380;-81
2022/06/07 06:28:05;;;;;;;9.77;4.13;;;;;;;20.41;60.56;100566.73;124267;1105;104572;-81
2022/06/07 06:31:46;;;;;;;;;;;;;;;;;;;;;
2022/06/07 06:34:59;;;;;;;13.67;4.20;;;;;;;20.75;59.61;100561.25;124313;1105;104145;-81
2022/06/07 06:37:39;;;;;;;11.07;3.57;;;;;;;20.91;57.19;100556.74;125262;1105;103261;-80
2022/06/07 06:40:21;;;;;;;6.40;3.10;;;;;;;21.07;57.25;100559.31;125007;1109;104178;-81
2022/06/07 06:43:08;;;;;;;6.50;3.30;;;;;;;21.16;57.37;100554.80;124439;1105;104245;-81
2022/06/07 06:46:10;;;;;;;9.47;3.43;;;;;;;21.28;55.57;100551.13;125235;1105;105584;-80
2022/06/07 06:48:46;;;;;;;5.67;3.10;;;;;;;21.46;56.46;100547.44;125150;1105;104354;-80
2022/06/07 06:51:26;;;;;;;10.50;3.00;;;;;;;21.64;55.63;100548.20;125082;1102;104185;-80
2022/06/07 06:54:02;;;;;;;6.27;2.90;;;;;;;21.75;55.11;100551.66;125177;1102;102421;-80
2022/06/07 06:56:46;;;;;;;5.83;2.67;;;;;;;21.90;54.79;100542.62;124665;1102;104442;-78
2022/06/07 06:59:25;;;;;;;5.17;2.70;;;;;;;22.05;54.08;100545.13;124319;1102;104358;-80
2022/06/07 07:02:01;;;;;;;6.10;2.80;;;;;;;22.16;54.10;100545.02;125282;1102;104271;-80
2022/06/07 07:04:43;;;;;;;5.57;2.90;;;;;;;22.33;53.29;100543.94;124666;1102;104463;-79
2022/06/07 07:07:18;;;;;;;3.40;2.50;;;;;;;22.48;53.31;100545.55;124470;1105;102713;-78
2022/06/07 07:09:54;;;;;;;7.07;2.93;;;;;;;22.63;53.32;100550.70;125115;1106;102414;-78
2022/06/07 07:12:31;;;;;;;7.97;2.67;;;;;;;22.77;52.39;100540.70;125161;1102;104194;-78
2022/06/07 07:15:13;;;;;;;3.93;2.53;;;;;;;22.96;52.17;100541.31;125252;1105;104290;-78
2022/06/07 07:17:56;;;;;;;6.00;2.87;;;;;;;23.16;52.13;100537.50;124538;1102;102878;-79
2022/06/07 07:20:46;;;;;;;7.40;3.17;;;;;;;23.30;50.03;100538.15;124406;1102;103765;-80
2022/06/07 07:23:36;;;;;;;4.80;2.70;;;;;;;23.49;50.01;100519.10;125310;1102;104159;-80
2022/06/07 07:26:24;;;;;;;11.40;2.70;;;;;;;23.65;50.23;100520.61;125148;1105;109524;-79
2022/06/07 07:29:17;;;;;;;4.90;2.73;;;;;;;23.90;49.52;100519.29;125280;1102;102522;-80
2022/06/07 07:31:59;;;;;;;4.00;2.60;;;;;;;24.11;47.70;100518.00;125237;1102;102177;-80
2022/06/07 07:34:39;;;;;;;2.63;2.20;;;;;;;24.33;47.55;100516.63;125316;1102;104185;-80
2022/06/07 07:37:17;;;;;;;3.57;2.43;;;;;;;24.47;47.19;100516.34;125328;1102;103489;-80
2022/06/07 07:39:51;;;;;;;4.23;2.30;;;;;;;24.63;45.88;100516.91;125196;1102;103413;-80
2022/06/07 07:42:33;;;;;;;;;;;;;;;24.73;43.00;100512.25;125496;1102;103422;-81
2022/06/07 07:45:19;;;;;;;5.00;2.23;;;;;;;24.80;44.33;100523.72;125345;1102;103153;-79
2022/06/07 07:48:02;;;;;;;3.73;2.20;;;;;;;25.00;43.94;100509.84;125322;1102;104175;-79
2022/06/07 07:50:47;;;;;;;8.77;2.40;;;;;;;25.18;43.51;100506.71;125453;1101;103490;-78
2022/06/07 07:53:40;;;;;;;5.63;1.97;;;;;;;25.34;42.71;100504.55;125493;1102;102027;-81
2022/06/07 07:56:17;;;;;;;4.77;2.03;;;;;;;25.44;41.73;100511.43;125239;1105;102359;-79
2022/06/07 07:58:50;;;;;;;4.50;2.13;;;;;;;25.45;40.15;100507.83;125161;1102;102478;-78
2022/06/07 08:01:23;;;;;;;;;;;;;;;25.40;40.67;100507.08;125464;1103;102988;-79
2022/06/07 08:04:20;;;;;;;4.00;2.17;;;;;;;25.51;41.30;100501.43;125238;1105;104378;-81
2022/06/07 08:07:13;;;;;;;2.17;1.90;;;;;;;25.42;39.14;100505.22;125127;1105;104079;-79
2022/06/07 08:09:52;;;;;;;3.63;2.33;;;;;;;25.67;38.87;100506.41;125149;1105;103434;-80
2022/06/07 08:12:39;;;;;;;3.17;2.10;;;;;;;25.82;38.26;100498.80;125070;1105;102731;-78
2022/06/07 08:15:13;;;;;;;5.90;2.23;;;;;;;26.08;39.22;100502.58;125041;1105;104243;-78
2022/06/07 08:17:49;;;;;;;2.67;2.17;;;;;;;26.26;38.84;100500.30;124497;1105;104352;-79
2022/06/07 08:20:22;;;;;;;5.87;2.10;;;;;;;26.36;38.55;100507.16;124409;1105;103728;-79
2022/06/07 08:23:01;;;;;;;4.90;2.17;;;;;;;26.47;35.98;100499.64;125152;1105;104102;-79
2022/06/07 08:25:34;;;;;;;2.37;2.10;;;;;;;26.65;36.76;100498.24;125211;1105;104374;-79
2022/06/07 08:28:22;;;;;;;3.57;1.90;;;;;;;26.81;34.11;100497.77;125221;1102;103245;-80
2022/06/07 08:31:06;;;;;;;2.33;2.10;;;;;;;27.02;36.47;100502.46;125336;1102;103504;-80
2022/06/07 08:39:37;;;;;;;3.33;1.93;;;;;;;27.10;33.17;100499.52;125394;1102;103498;-79
2022/06/07 08:42:28;;;;;;;3.77;2.17;;;;;;;27.25;33.92;100499.02;125072;1102;104174;-78
2022/06/07 08:45:21;;;;;;;4.55;2.20;;;;;;;27.43;33.86;100492.13;125176;1102;104179;-82
2022/06/07 08:48:05;;;;;;;2.30;2.00;;;;;;;27.50;32.99;100489.23;125252;1103;108702;-83
2022/06/07 08:51:04;;;;;;;4.83;2.37;;;;;;;27.64;33.77;100488.74;125494;1102;102972;-80
2022/06/07 08:53:48;;;;;;;4.73;2.27;;;;;;;27.75;33.90;100495.53;125428;1102;104134;-83
2022/06/07 08:57:31;;;;;;;3.73;2.10;;;;;;;27.70;33.82;100483.14;125747;1102;103548;-81
2022/06/07 09:00:36;;;;;;;4.20;2.05;;;;;;;27.69;33.82;100484.97;125340;1102;103259;-82
2022/06/07 09:07:07;;;;;;;5.03;2.27;;;;;;;27.61;33.36;100471.76;125364;1102;104162;-82
2022/06/07 09:13:23;;;;;;;5.30;2.47;;;;;;;27.77;33.72;100471.21;125399;1102;102545;-80
2022/06/07 09:16:07;;;;;;;3.93;2.40;;;;;;;27.72;33.12;100471.37;125406;1099;103582;-79
2022/06/07 09:18:56;;;;;;;3.30;2.07;;;;;;;27.99;33.01;100463.23;125472;1099;107689;-81
2022/06/07 09:21:43;;;;;;;2.10;1.90;;;;;;;28.22;33.04;100453.38;124802;1099;104717;-81
2022/06/07 09:24:52;;;;;;;4.87;1.90;;;;;;;28.20;31.48;100455.27;125625;1099;104093;-82
2022/06/07 09:27:37;;;;;;;2.40;2.20;;;;;;;28.33;31.65;100457.44;125703;1102;103256;-81
2022/06/07 09:33:38;;;;;;;3.33;2.10;;;;;;;28.44;31.66;100448.92;125488;1099;104312;-80
2022/06/07 09:36:30;;;;;;;;;;;;;;;28.47;30.31;100458.70;125564;1099;102838;-77
2022/06/07 09:39:27;;;;;;;3.07;2.43;;;;;;;28.44;31.97;100451.63;126044;1098;104227;-80
2022/06/07 09:42:10;;;;;;;5.70;2.13;;;;;;;28.36;31.42;100447.45;125800;1099;104125;-79
2022/06/07 09:45:26;;;;;;;1.90;1.80;;;;;;;28.09;31.07;100452.98;125973;1099;103817;-78
2022/06/07 09:48:26;;;;;;;5.20;2.10;;;;;;;27.87;31.10;100448.35;125470;1099;103284;-79
2022/06/07 09:51:02;;;;;;;3.53;1.90;;;;;;;27.76;30.94;100443.35;125622;1099;102611;-78
2022/06/07 09:53:45;;;;;;;5.83;2.10;;;;;;;27.80;31.01;100436.92;125694;1099;102239;-78
2022/06/07 09:56:27;;;;;;;2.53;1.70;;;;;;;27.89;30.90;100440.20;125431;1099;104127;-77
2022/06/07 09:59:12;;;;;;;1.83;1.73;;;;;;;27.78;30.70;100432.52;125984;1099;102481;-76
2022/06/07 10:01:54;;;;;;;3.33;2.03;;;;;;;27.74;31.01;100433.58;125148;1099;104284;-79
2022/06/07 10:04:46;;;;;;;2.13;1.63;;;;;;;27.68;30.87;100437.37;125686;1099;104128;-78
2022/06/07 10:07:47;;;;;;;5.07;1.97;;;;;;;27.73;30.72;100435.38;124899;1099;104226;-80
2022/06/07 10:10:31;;;;;;;3.97;1.83;;;;;;;27.98;30.59;100429.98;125416;1102;103490;-79
2022/06/07 10:13:18;;;;;;;3.50;2.13;;;;;;;28.16;30.24;100422.14;125498;1102;104798;-79
2022/06/07 10:16:04;;;;;;;3.37;1.83;;;;;;;28.44;30.53;100423.77;125725;1102;102409;-80
2022/06/07 10:18:58;;;;;;;3.13;1.90;;;;;;;28.52;29.99;100418.94;125758;1102;103364;-80
2022/06/07 10:24:41;;;;;;;1.77;1.67;;;;;;;28.57;29.65;100416.05;125565;1102;104903;-78
2022/06/07 10:27:22;;;;;;;2.55;1.80;;;;;;;28.50;28.84;100407.30;125655;1102;102487;-77
2022/06/07 10:30:18;;;;;;;2.93;2.03;;;;;;;28.46;29.17;100403.86;125628;1105;102333;-80
2022/06/07 10:33:33;;;;;;;5.43;2.00;;;;;;;28.56;28.19;100408.88;125593;1105;103146;-79
2022/06/07 10:36:26;;;;;;;2.00;1.60;;;;;;;28.68;28.37;100403.02;125419;1106;107996;-78
2022/06/07 10:39:15;;;;;;;2.00;1.60;;;;;;;28.60;27.72;100397.06;125072;1105;102535;-79
2022/06/07 10:42:00;;;;;;;3.37;1.80;;;;;;;28.73;28.30;100394.73;125577;1102;103283;-79
2022/06/07 10:44:38;;;;;;;2.73;1.93;;;;;;;28.84;28.27;100392.45;125511;1102;104172;-80
2022/06/07 10:47:30;;;;;;;3.73;1.80;;;;;;;28.96;26.96;100393.77;124875;1102;103766;-79
2022/06/07 10:50:07;;;;;;;4.20;1.63;;;;;;;29.05;26.99;100386.14;125421;1102;103344;-79
2022/06/07 10:52:57;;;;;;;3.27;2.00;;;;;;;29.16;27.46;100377.58;125261;1102;103183;-80
2022/06/07 10:55:37;;;;;;;2.60;1.90;;;;;;;29.25;27.37;100381.74;124828;1103;104721;-79
2022/06/07 10:58:36;;;;;;;3.10;1.83;;;;;;;29.32;27.20;100379.64;125482;1102;104165;-80
2022/06/07 11:01:15;;;;;;;6.87;2.03;;;;;;;29.45;27.27;100382.66;125357;1102;104208;-77
2022/06/07 11:04:03;;;;;;;4.50;1.90;;;;;;;29.45;27.53;100378.16;124631;1102;104320;-79
2022/06/07 11:10:17;;;;;;;5.20;1.90;;;;;;;29.16;27.39;100365.90;125528;1099;104176;-79
2022/06/07 11:13:01;;;;;;;2.20;1.90;;;;;;;29.04;27.62;100370.00;125401;1103;103248;-79
2022/06/07 11:16:03;;;;;;;2.73;2.30;;;;;;;28.99;27.39;100378.30;125459;1102;103845;-80
2022/06/07 11:19:16;;;;;;;2.50;2.00;;;;;;;28.91;27.63;100391.27;125304;1102;104328;-80
2022/06/07 11:22:16;;;;;;;6.70;2.10;;;;;;;28.64;27.04;100383.37;125271;1103;103210;-78
2022/06/07 11:25:19;;;;;;;3.37;2.07;;;;;;;28.44;26.98;100378.76;125316;1102;104079;-79
2022/06/07 11:28:01;;;;;;;3.67;1.97;;;;;;;28.48;27.33;100374.11;125332;1102;104168;-79
2022/06/07 11:30:49;;;;;;;;;;;;;;;28.47;26.62;100377.73;125547;1102;104244;-81
2022/06/07 11:34:09;;;;;;;;;;;;;;;;;;;;;
2022/06/07 11:36:45;;;;;;;;;;;;;;;28.30;26.98;100367.66;125358;1102;104211;-82
2022/06/07 11:40:02;;;;;;;;;;;;;;;;;;;;;
2022/06/07 11:43:16;;;;;;;4.77;2.13;;;;;;;28.18;27.51;100360.91;125423;1102;103841;-80
2022/06/07 11:46:22;;;;;;;2.50;2.10;;;;;;;28.03;27.85;100364.22;125425;1102;102215;-82
2022/06/07 11:48:57;;;;;;;5.63;2.37;;;;;;;27.88;27.99;100366.54;125411;1102;104229;-81
2022/06/07 11:51:42;;;;;;;9.93;2.35;;;;;;;27.89;28.01;100359.32;125341;1102;102825;-80
2022/06/07 11:54:54;;;;;;;3.37;2.40;;;;;;;28.06;27.68;100358.70;125386;1102;104736;-80
2022/06/07 11:57:41;;;;;;;4.07;2.13;;;;;;;28.19;27.96;100350.99;125320;1102;102377;-79
2022/06/07 12:00:57;;;;;;;4.80;1.90;;;;;;;28.28;27.17;100343.44;125371;1101;102936;-79
2022/06/07 12:04:18;;;;;;;8.67;2.10;;;;;;;28.37;27.65;100335.89;125415;1099;104347;-79
2022/06/07 12:10:31;;;;;;;2.77;1.87;;;;;;;28.07;26.73;100337.06;125294;1100;103195;-79
2022/06/07 12:13:49;;;;;;;3.47;2.20;;;;;;;28.26;27.19;100333.63;125406;1102;104152;-79
2022/06/07 12:16:30;;;;;;;6.03;2.30;;;;;;;28.48;26.79;100330.93;125491;1099;102752;-79
2022/06/07 12:22:25;;;;;;;3.80;2.10;;;;;;;28.81;26.32;100327.78;125411;1099;102986;-79
2022/06/07 12:25:13;;;;;;;5.20;2.13;;;;;;;28.92;26.22;100321.91;125330;1099;102686;-79
2022/06/07 12:27:57;;;;;;;4.40;1.97;;;;;;;28.98;25.88;100317.11;124911;1102;102377;-80
2022/06/07 12:30:44;;;;;;;4.87;2.07;;;;;;;29.09;26.22;100323.88;125417;1102;103950;-79
2022/06/07 12:33:33;;;;;;;2.67;1.83;;;;;;;29.18;26.08;100315.37;125423;1102;102765;-79
2022/06/07 12:36:20;;;;;;;6.87;2.10;;;;;;;29.23;25.83;100316.06;124724;1102;104334;-79
2022/06/07 12:39:17;;;;;;;1.87;1.70;;;;;;;29.34;25.63;100312.88;125354;1102;104143;-80
2022/06/07 12:42:23;;;;;;;3.43;1.80;;;;;;;29.49;25.57;100300.50;125343;1102;102820;-80
2022/06/07 12:45:23;;;;;;;2.20;1.87;;;;;;;29.56;25.26;100305.55;125531;1102;104204;-81
2022/06/07 12:48:09;;;;;;;3.90;1.83;;;;;;;29.39;25.53;100314.44;125257;1102;102495;-79
2022/06/07 12:51:07;;;;;;;4.20;1.95;;;;;;;29.17;25.22;100310.90;125404;1102;104519;-80
2022/06/07 12:54:06;;;;;;;6.83;2.12;;;;;;;28.93;25.34;100299.38;125487;1102;104204;-82
2022/06/07 12:57:17;;;;;;;7.13;2.30;;;;;;;28.67;25.11;100304.06;125237;1105;102934;-80
2022/06/07 13:00:25;;;;;;;4.63;1.80;;;;;;;28.54;25.72;100302.81;125687;1099;121284;-81
2022/06/07 13:03:29;;;;;;;3.83;2.10;;;;;;;28.39;25.70;100296.23;125926;1099;102316;-79